LIVE FLIGHTS

CallsignPilotDepartureArrivalFlight stageAircraft type% CompletedPending NM

 WELCOME TO BirgenAir Virtual Airlines

 STATISTICS

Pilots 33
Aircraft in fleet 0
Routes 0
Total hours: 4724.87
Flights total 4863
Flights Regular 127
Flights Charter 4736
% Flights Regular 2.61 %

 IVAO

 Active Runways & Weather of LTBA

Kalkış Pisti

35R-L

İniş Pisti

05

LTBA 260550Z 19003KT 090V260 CAVOK 10/06 Q1011 NOSIG RMK RWY17L VRB02KT RWY05 VRB02KT RWY23 VRB02KT

 LATEST FLIGHTS

CallsignPilotDepartureArrivalDateFlight Time
BGN001Umut Keskin  VTBS  FNLU 2019-03-26 10.77
BGN974Turgut Uyanık  LKPR  EGLL 2019-03-26 1.43
BGN156Serdar Kesenci  UTDD  VNKT 2019-03-25 2.90
BGN546Burak Yilmaz  FMMI  HKMO 2019-03-25 2.29
BGN156Serdar Kesenci  HDAM  OERK 2019-03-25 1.97

 NEWEST PILOTS

 FUTURE EVENTS

EventDate

  Facebook

 TOP 5 PILOTS BY FLIGHTS

CallsignPilotFlights
BGN003Bülent ÇAĞLAR577
BGN001Umut Keskin476
BGN974Turgut Uyanık270
BGN005Ceyhun Özbesler257
BGN002Murat Türkarslan252

 News

TitleDate



Copyright © 2011 - 2018 BirgenAir Virtual Airlines. All rights reserved. Developed by Goktug Unver